createdAt,value
2018-08-12T00:03:43.926Z,71.51
2018-08-12T00:08:54.316Z,72.31
2018-08-12T00:14:03.381Z,73.28
2018-08-12T00:19:12.673Z,73.83
2018-08-12T00:24:22.510Z,74.89
2018-08-12T00:29:31.820Z,75.79
2018-08-12T00:34:40.448Z,77.06
2018-08-12T00:39:50.088Z,78.03
2018-08-12T00:44:59.367Z,78.48
2018-08-12T00:50:09.196Z,78.94
2018-08-12T00:55:18.699Z,80.31
2018-08-12T01:00:27.533Z,80.68
2018-08-12T01:05:36.351Z,81.24
2018-08-12T01:10:45.423Z,81.53
2018-08-12T01:15:54.287Z,82.33
2018-08-12T01:21:03.745Z,83.78
2018-08-12T01:26:12.792Z,83.76
2018-08-12T01:31:22.960Z,83.55
2018-08-12T01:36:32.658Z,84.88
2018-08-12T01:41:42.010Z,84.14
2018-08-12T01:46:51.298Z,85.12
2018-08-12T01:52:00.713Z,85.14
2018-08-12T01:57:09.633Z,84.42
2018-08-12T02:02:19.131Z,84.50
2018-08-12T02:07:28.549Z,83.50
2018-08-12T02:12:38.148Z,83.51
2018-08-12T02:17:47.727Z,83.70
2018-08-12T02:22:56.997Z,83.41
2018-08-12T02:28:06.525Z,82.27
2018-08-12T02:33:15.720Z,81.72
2018-08-12T02:38:24.754Z,82.77
2018-08-12T02:43:33.664Z,82.80
2018-08-12T02:48:43.350Z,82.67
2018-08-12T02:53:52.762Z,81.67
2018-08-12T02:59:01.701Z,81.87
2018-08-12T03:04:10.605Z,81.46
2018-08-12T03:09:19.973Z,81.68
2018-08-12T03:14:29.207Z,80.93
2018-08-12T03:19:38.115Z,81.00
2018-08-12T03:24:47.857Z,80.99
2018-08-12T03:29:56.626Z,81.77
2018-08-12T03:35:05.738Z,82.27
2018-08-12T03:40:14.980Z,81.48
2018-08-12T03:45:23.807Z,81.23
2018-08-12T03:50:33.436Z,81.46
2018-08-12T03:55:43.040Z,80.42
2018-08-12T04:00:52.546Z,79.32
2018-08-12T04:06:02.094Z,78.88
2018-08-12T04:11:11.045Z,77.15
2018-08-12T04:16:20.706Z,76.48
2018-08-12T04:21:29.846Z,75.87
2018-08-12T04:26:38.993Z,75.77
2018-08-12T04:31:48.638Z,75.95
2018-08-12T04:36:57.512Z,75.81
2018-08-12T04:42:06.641Z,75.12
2018-08-12T04:47:15.967Z,74.32
2018-08-12T04:52:25.533Z,71.38
2018-08-12T04:57:34.780Z,54.12
2018-08-12T05:02:44.170Z,43.96
2018-08-12T05:07:53.722Z,38.81
2018-08-12T05:13:02.474Z,38.38
2018-08-12T05:18:12.033Z,35.24
2018-08-12T05:23:21.468Z,31.15
2018-08-12T05:28:30.642Z,29.70
2018-08-12T05:33:39.474Z,31.61
2018-08-12T05:38:57.065Z,31.39
2018-08-12T05:44:06.967Z,31.69
2018-08-12T05:49:16.469Z,33.12
2018-08-12T05:54:26.034Z,31.96
2018-08-12T05:59:35.257Z,29.78
2018-08-12T06:09:57.359Z,25.83
2018-08-12T06:15:06.879Z,25.89
2018-08-12T06:20:16.364Z,26.35
2018-08-12T06:25:25.316Z,27.76
2018-08-12T06:30:34.340Z,27.89
2018-08-12T06:35:43.515Z,26.60
2018-08-12T06:40:52.969Z,31.30
2018-08-12T06:46:02.164Z,34.92
2018-08-12T06:51:11.281Z,38.27
2018-08-12T06:56:20.216Z,39.44
2018-08-12T07:01:29.234Z,40.91
2018-08-12T07:06:38.425Z,42.22
2018-08-12T07:11:47.571Z,41.56
2018-08-12T07:16:56.801Z,42.13
2018-08-12T07:22:06.049Z,41.70
2018-08-12T07:27:15.171Z,42.88
2018-08-12T07:32:24.648Z,42.51
2018-08-12T07:37:34.793Z,43.06
2018-08-12T07:42:43.720Z,43.01
2018-08-12T07:47:52.698Z,41.98
2018-08-12T07:53:01.941Z,41.20
2018-08-12T07:58:11.284Z,42.13
2018-08-12T08:03:20.171Z,41.30
2018-08-12T08:08:29.721Z,40.23
2018-08-12T08:13:39.247Z,38.79
2018-08-12T08:18:48.191Z,39.26
2018-08-12T08:23:57.583Z,40.46
2018-08-12T08:29:06.947Z,37.59
2018-08-12T08:34:15.553Z,37.14
2018-08-12T08:39:24.897Z,37.27
2018-08-12T08:44:34.568Z,37.10
2018-08-12T08:49:43.223Z,35.89
2018-08-12T08:54:52.728Z,34.74
2018-08-12T09:00:01.450Z,32.61
2018-08-12T09:05:10.744Z,28.92
2018-08-12T09:10:19.849Z,24.52
2018-08-12T09:15:29.861Z,22.64
2018-08-12T09:20:39.469Z,22.44
2018-08-12T09:25:48.364Z,21.86
2018-08-12T09:30:57.500Z,25.32
2018-08-12T09:36:07.096Z,20.93
2018-08-12T09:41:16.242Z,24.48
2018-08-12T09:46:25.559Z,25.19
2018-08-12T09:51:34.556Z,21.09
2018-08-12T09:56:43.302Z,24.23
2018-08-12T10:01:52.047Z,23.15
2018-08-12T10:07:01.342Z,20.51
2018-08-12T10:12:10.206Z,20.53
2018-08-12T10:17:19.181Z,20.98
2018-08-12T10:22:28.172Z,20.90
2018-08-12T10:27:37.116Z,22.15
2018-08-12T10:32:45.876Z,20.36
2018-08-12T10:37:55.762Z,20.47
2018-08-12T10:43:04.777Z,22.02
2018-08-12T10:48:13.681Z,22.17
2018-08-12T10:53:22.879Z,21.68
2018-08-12T10:58:32.500Z,20.18
2018-08-12T11:03:41.519Z,22.00
2018-08-12T11:08:50.276Z,20.95
2018-08-12T11:14:00.242Z,23.43
2018-08-12T11:19:09.448Z,21.78
2018-08-12T11:24:18.439Z,23.79
2018-08-12T11:29:27.725Z,24.36
2018-08-12T11:34:36.687Z,22.89
2018-08-12T11:39:45.390Z,23.55
2018-08-12T11:44:54.534Z,23.21
2018-08-12T11:50:04.325Z,22.48
2018-08-12T11:55:15.429Z,22.77
2018-08-12T12:00:24.702Z,23.49
2018-08-12T12:05:33.946Z,22.13
2018-08-12T12:10:42.856Z,23.13
2018-08-12T12:15:52.064Z,23.90
2018-08-12T12:21:01.073Z,21.66
2018-08-12T12:26:10.048Z,24.37
2018-08-12T12:31:19.164Z,22.76
2018-08-12T12:36:28.769Z,21.76
2018-08-12T12:41:37.812Z,23.75
2018-08-12T12:46:47.163Z,22.32
2018-08-12T12:51:56.548Z,21.47
2018-08-12T12:57:05.591Z,21.97
2018-08-12T13:02:14.367Z,21.77
2018-08-12T13:07:23.461Z,22.20
2018-08-12T13:12:32.832Z,21.76
2018-08-12T13:17:42.506Z,21.50
2018-08-12T13:22:52.044Z,21.22
2018-08-12T13:28:01.874Z,20.82
2018-08-12T13:33:11.167Z,21.53
2018-08-12T13:38:20.460Z,20.53
2018-08-12T13:43:29.646Z,19.57
2018-08-12T13:48:38.721Z,19.85
2018-08-12T13:53:47.705Z,21.66
2018-08-12T13:58:57.063Z,22.57
2018-08-12T14:04:05.838Z,21.88
2018-08-12T14:09:14.837Z,20.61
2018-08-12T14:14:24.196Z,19.82
2018-08-12T14:19:33.414Z,20.78
2018-08-12T14:24:43.443Z,21.72
2018-08-12T14:29:52.418Z,20.38
2018-08-12T14:35:02.213Z,20.74
2018-08-12T14:40:12.249Z,20.42
2018-08-12T14:45:21.517Z,19.41
2018-08-12T14:50:30.879Z,19.39
2018-08-12T14:55:39.579Z,20.24
2018-08-12T15:00:48.657Z,19.11
2018-08-12T15:05:58.064Z,20.82
2018-08-12T15:11:07.127Z,20.08
2018-08-12T15:16:16.500Z,20.08
2018-08-12T15:21:25.654Z,19.27
2018-08-12T15:26:34.988Z,19.04
2018-08-12T15:31:43.867Z,19.18
2018-08-12T15:36:52.993Z,19.77
2018-08-12T15:42:02.420Z,19.57
2018-08-12T15:47:11.251Z,20.83
2018-08-12T15:52:20.428Z,19.44
2018-08-12T15:57:29.515Z,18.38
2018-08-12T16:02:38.890Z,18.80
2018-08-12T16:07:48.145Z,19.24
2018-08-12T16:12:57.492Z,19.19
2018-08-12T16:18:06.728Z,19.16
2018-08-12T16:23:16.040Z,19.59
2018-08-12T16:28:24.999Z,19.81
2018-08-12T16:33:34.333Z,23.13
2018-08-12T16:38:43.709Z,22.22
2018-08-12T16:43:52.348Z,22.93
2018-08-12T16:49:01.474Z,22.30
2018-08-12T16:54:10.678Z,22.52
2018-08-12T16:59:19.841Z,23.15
2018-08-12T17:04:29.306Z,22.30
2018-08-12T17:09:38.270Z,24.22
2018-08-12T17:14:47.210Z,22.44
2018-08-12T17:19:56.180Z,22.73
2018-08-12T17:25:05.628Z,25.50
2018-08-12T17:30:14.343Z,25.71
2018-08-12T17:35:23.066Z,26.85
2018-08-12T17:40:32.147Z,26.14
2018-08-12T17:45:41.004Z,26.16
2018-08-12T17:50:49.969Z,30.28
2018-08-12T17:56:00.100Z,30.27
2018-08-12T18:01:09.617Z,30.94
2018-08-12T18:06:18.915Z,32.51
2018-08-12T18:11:28.170Z,33.50
2018-08-12T18:16:37.488Z,36.35
2018-08-12T18:21:46.964Z,38.59
2018-08-12T18:26:57.760Z,36.85
2018-08-12T18:32:06.501Z,39.36
2018-08-12T18:37:15.740Z,40.07
2018-08-12T18:42:25.220Z,40.99
2018-08-12T18:47:34.748Z,40.40
2018-08-12T18:52:45.130Z,42.04
2018-08-12T18:57:54.070Z,42.54
2018-08-12T19:03:03.731Z,43.01
2018-08-12T19:08:12.494Z,44.01
2018-08-12T19:13:22.793Z,48.18
2018-08-12T19:18:32.197Z,46.25
2018-08-12T19:23:44.668Z,46.73
2018-08-12T19:28:55.412Z,46.73
2018-08-12T19:34:04.288Z,48.03
2018-08-12T19:39:13.184Z,49.18
2018-08-12T19:44:22.174Z,50.62
2018-08-12T19:49:31.446Z,50.02
2018-08-12T19:54:40.626Z,50.00
2018-08-12T19:59:49.996Z,52.20
2018-08-12T20:04:59.205Z,52.26
2018-08-12T20:10:08.670Z,52.36
2018-08-12T20:15:39.423Z,54.19
2018-08-12T20:20:48.728Z,54.18
2018-08-12T20:25:58.424Z,54.03
2018-08-12T20:31:07.407Z,52.81
2018-08-12T20:36:16.690Z,55.97
2018-08-12T20:41:25.928Z,54.80
2018-08-12T20:46:35.272Z,54.50
2018-08-12T20:51:44.359Z,55.87
2018-08-12T20:56:53.430Z,55.98
2018-08-12T21:02:02.940Z,54.56
2018-08-12T21:07:12.561Z,56.40
2018-08-12T21:12:22.375Z,56.14
2018-08-12T21:17:31.935Z,56.88
2018-08-12T21:22:41.356Z,57.23
2018-08-12T21:27:50.354Z,57.85
2018-08-12T21:32:59.561Z,58.65
2018-08-12T21:38:08.545Z,59.39
2018-08-12T21:43:17.822Z,58.80
2018-08-12T21:48:27.245Z,58.72
2018-08-12T21:53:36.107Z,59.16
2018-08-12T21:58:45.038Z,59.95
2018-08-12T22:03:54.472Z,62.36
2018-08-12T22:09:06.051Z,61.98
2018-08-12T22:14:14.749Z,61.01
2018-08-12T22:19:23.952Z,61.87
2018-08-12T22:24:33.098Z,62.21
2018-08-12T22:29:42.276Z,63.19
2018-08-12T22:34:51.571Z,63.54
2018-08-12T22:40:01.178Z,63.77
2018-08-12T22:45:10.640Z,64.05
2018-08-12T22:50:20.160Z,65.58
2018-08-12T22:55:28.897Z,65.57
2018-08-12T23:00:38.084Z,65.41
2018-08-12T23:05:47.495Z,67.00
2018-08-12T23:10:56.554Z,66.71
2018-08-12T23:16:16.997Z,67.22
2018-08-12T23:21:25.919Z,66.68
2018-08-12T23:26:34.848Z,67.21
2018-08-12T23:31:43.746Z,68.08
2018-08-12T23:36:53.273Z,68.03
2018-08-12T23:42:02.647Z,68.33
2018-08-12T23:47:11.782Z,68.41
2018-08-12T23:52:21.111Z,68.14
2018-08-12T23:57:30.178Z,68.13
